Time;durP1;ratioP1;P1;durP2;ratioP2;P2;SDS_P1;SDS_P2;PMS_P1;PMS_P2;Temp;Humidity;BMP_temperature;BMP_pressure;BME280_temperature;BME280_humidity;BME280_pressure;Samples;Min_cycle;Max_cycle;Signal;HPM_P1;HPM_P2
2022/03/25 00:01:18;;;;;;;106.32;47.72;;;5.90;91.60;;;;;;6121834;22;98976;-69
2022/03/25 00:03:45;;;;;;;113.40;48.60;;;5.90;91.60;;;;;;6121169;23;98514;-70
2022/03/25 00:06:12;;;;;;;112.88;48.88;;;5.90;91.70;;;;;;6119146;23;104200;-70
2022/03/25 00:08:39;;;;;;;114.85;48.03;;;5.80;91.70;;;;;;6121091;23;98868;-69
2022/03/25 00:11:06;;;;;;;121.10;49.67;;;5.80;91.70;;;;;;6119812;23;99443;-70
2022/03/25 00:13:33;;;;;;;96.63;45.35;;;5.80;91.60;;;;;;6121054;22;98565;-70
2022/03/25 00:16:02;;;;;;;89.53;44.92;;;5.80;91.60;;;;;;6119091;23;99856;-70
2022/03/25 00:18:29;;;;;;;93.43;45.90;;;5.70;91.70;;;;;;6119422;23;99762;-70
2022/03/25 00:20:57;;;;;;;110.95;48.80;;;5.70;91.60;;;;;;6119472;23;98446;-69
2022/03/25 00:23:24;;;;;;;121.47;49.60;;;5.70;91.70;;;;;;6119715;23;98573;-70
2022/03/25 00:25:51;;;;;;;161.98;56.35;;;5.60;91.60;;;;;;6120707;23;99238;-69
2022/03/25 00:28:20;;;;;;;186.60;55.08;;;5.60;91.60;;;;;;6118921;23;103105;-70
2022/03/25 00:30:47;;;;;;;262.00;59.67;;;5.50;91.50;;;;;;6121048;23;98909;-70
2022/03/25 00:33:14;;;;;;;224.48;56.17;;;5.50;91.60;;;;;;6120267;23;97820;-70
2022/03/25 00:35:41;;;;;;;169.65;54.38;;;5.50;91.60;;;;;;6120765;22;98990;-69
2022/03/25 00:38:09;;;;;;;174.52;53.92;;;5.40;91.60;;;;;;6119072;23;101508;-70
2022/03/25 00:40:36;;;;;;;177.60;56.13;;;5.40;91.80;;;;;;6118810;23;99583;-70
2022/03/25 00:43:06;;;;;;;176.98;59.67;;;5.40;91.90;;;;;;6119763;23;98575;-69
2022/03/25 00:45:33;;;;;;;165.10;51.78;;;5.40;91.90;;;;;;6118152;23;101480;-70
2022/03/25 00:48:02;;;;;;;134.00;49.20;;;5.40;91.90;;;;;;6118812;23;101656;-70
2022/03/25 00:50:30;;;;;;;146.15;49.28;;;5.40;91.70;;;;;;6070678;23;98571;-69
2022/03/25 00:52:57;;;;;;;139.65;49.40;;;5.30;91.70;;;;;;6120561;22;98582;-69
2022/03/25 00:55:24;;;;;;;210.93;50.10;;;5.30;91.80;;;;;;6118923;23;101961;-70
2022/03/25 00:57:51;;;;;;;161.70;48.15;;;5.30;91.90;;;;;;6120975;23;99082;-69
2022/03/25 01:00:20;;;;;;;230.60;53.13;;;5.30;92.00;;;;;;6094845;23;98605;-70
2022/03/25 01:02:47;;;;;;;202.65;49.40;;;5.30;92.00;;;;;;6120852;22;98455;-70
2022/03/25 01:05:14;;;;;;;214.02;50.75;;;5.30;92.10;;;;;;6118435;23;102651;-70
2022/03/25 01:07:41;;;;;;;196.73;51.38;;;5.30;92.20;;;;;;6118496;23;102330;-70
2022/03/25 01:10:08;;;;;;;205.25;50.60;;;5.30;92.20;;;;;;6121040;22;98410;-69
2022/03/25 01:12:35;;;;;;;194.05;51.38;;;5.30;92.20;;;;;;6119322;23;98518;-70
2022/03/25 01:15:03;;;;;;;131.05;49.72;;;5.30;92.20;;;;;;6118550;23;102044;-69
2022/03/25 01:17:31;;;;;;;110.45;45.47;;;5.30;92.30;;;;;;6120615;22;99036;-69
2022/03/25 01:19:58;;;;;;;113.32;47.10;;;5.30;92.30;;;;;;6094538;23;98915;-69
2022/03/25 01:22:25;;;;;;;98.22;46.25;;;5.30;92.30;;;;;;6094848;23;101786;-70
2022/03/25 01:24:52;;;;;;;113.63;48.60;;;5.30;92.60;;;;;;6093896;23;101773;-69
2022/03/25 01:27:22;;;;;;;124.60;49.17;;;5.30;92.40;;;;;;6119044;23;98990;-69
2022/03/25 01:29:49;;;;;;;117.00;50.83;;;5.30;92.40;;;;;;6120238;23;99269;-69
2022/03/25 01:32:16;;;;;;;116.00;51.35;;;5.30;92.30;;;;;;6094700;23;98928;-69
2022/03/25 01:34:45;;;;;;;138.52;51.53;;;5.30;92.30;;;;;;6118713;23;99553;-70
2022/03/25 01:37:13;;;;;;;128.30;50.10;;;5.30;92.20;;;;;;6119245;23;99064;-70
2022/03/25 01:39:40;;;;;;;130.18;50.20;;;5.30;92.20;;;;;;6120929;22;98472;-70
2022/03/25 01:42:07;;;;;;;117.15;48.88;;;5.20;92.20;;;;;;6094079;23;98576;-69
2022/03/25 01:44:34;;;;;;;132.85;47.83;;;5.20;92.20;;;;;;6118678;23;102250;-69
2022/03/25 01:47:03;;;;;;;237.07;54.22;;;5.20;92.10;;;;;;6118642;23;101874;-70
2022/03/25 01:49:30;;;;;;;268.92;55.15;;;5.20;92.00;;;;;;6119340;23;98609;-69
2022/03/25 01:52:00;;;;;;;311.65;63.45;;;5.20;91.90;;;;;;6118368;23;98866;-69
2022/03/25 01:54:34;;;;;;;344.48;66.10;;;5.20;91.80;;;;;;6093335;23;102512;-69
2022/03/25 01:57:03;;;;;;;490.33;79.57;;;5.10;91.70;;;;;;6118893;23;102357;-70
2022/03/25 01:59:31;;;;;;;347.88;69.00;;;5.00;91.70;;;;;;6095548;23;98952;-70
2022/03/25 02:02:00;;;;;;;428.98;72.90;;;5.00;91.70;;;;;;6095543;23;98503;-69
2022/03/25 02:04:30;;;;;;;331.33;68.72;;;4.90;91.60;;;;;;6120237;23;99350;-69
2022/03/25 02:06:57;;;;;;;354.60;73.40;;;4.90;91.60;;;;;;6094769;23;101422;-69
2022/03/25 02:09:25;;;;;;;506.63;81.50;;;4.80;91.50;;;;;;6095554;23;98427;-69
2022/03/25 02:11:58;;;;;;;418.05;73.22;;;4.80;91.50;;;;;;6120726;23;97844;-69
2022/03/25 02:14:25;;;;;;;376.92;66.47;;;4.80;91.50;;;;;;6121516;22;99151;-69
2022/03/25 02:16:53;;;;;;;439.50;66.10;;;4.80;91.60;;;;;;6119380;23;101705;-69
2022/03/25 02:19:20;;;;;;;636.10;84.03;;;4.80;91.60;;;;;;6119824;23;99248;-69
2022/03/25 02:21:49;;;;;;;544.63;67.45;;;4.80;91.70;;;;;;6119824;23;98655;-70
2022/03/25 02:24:22;;;;;;;469.63;61.57;;;4.80;91.80;;;;;;6119860;23;101658;-70
2022/03/25 02:26:51;;;;;;;459.77;65.15;;;4.80;91.90;;;;;;6094663;23;101553;-69
2022/03/25 02:29:18;;;;;;;505.63;60.33;;;4.70;92.00;;;;;;6119992;23;98500;-69
2022/03/25 02:31:46;;;;;;;419.00;57.92;;;4.60;92.10;;;;;;6119960;23;98623;-70
2022/03/25 02:34:13;;;;;;;619.15;76.78;;;4.60;92.30;;;;;;6095058;23;101708;-69
2022/03/25 02:36:43;;;;;;;382.85;55.08;;;4.60;92.40;;;;;;6120220;23;99158;-69
2022/03/25 02:39:12;;;;;;;452.58;58.67;;;4.60;92.50;;;;;;6119661;23;98562;-69
2022/03/25 02:41:40;;;;;;;484.65;65.95;;;4.50;92.70;;;;;;6120060;23;98531;-69
2022/03/25 02:44:09;;;;;;;486.23;64.20;;;4.50;92.80;;;;;;6118706;23;102301;-69
2022/03/25 02:46:37;;;;;;;412.65;60.97;;;4.50;92.80;;;;;;6094804;23;101995;-69
2022/03/25 02:49:04;;;;;;;467.90;62.70;;;4.50;92.90;;;;;;6119536;23;98527;-69
2022/03/25 02:51:31;;;;;;;571.53;64.43;;;4.50;93.10;;;;;;6120051;23;98576;-69
2022/03/25 02:53:58;;;;;;;556.95;69.20;;;4.50;93.30;;;;;;6094602;23;102116;-69
2022/03/25 02:56:25;;;;;;;479.73;58.53;;;4.50;93.40;;;;;;6094862;23;101690;-69
2022/03/25 02:58:53;;;;;;;495.27;61.92;;;4.40;93.50;;;;;;6119875;23;98567;-70
2022/03/25 03:01:20;;;;;;;570.00;73.88;;;4.40;93.70;;;;;;6120327;23;97888;-70
2022/03/25 03:03:48;;;;;;;554.40;77.65;;;4.50;93.80;;;;;;6119692;23;99754;-69
2022/03/25 03:06:14;;;;;;;601.50;80.38;;;4.50;93.80;;;;;;6094515;23;101603;-69
2022/03/25 03:08:41;;;;;;;508.58;67.72;;;4.50;93.80;;;;;;6119161;23;99385;-69
2022/03/25 03:11:08;;;;;;;495.38;68.50;;;4.50;93.80;;;;;;6119812;23;98544;-70
2022/03/25 03:13:35;;;;;;;419.50;60.70;;;4.60;93.90;;;;;;6121054;23;99265;-69
2022/03/25 03:16:02;;;;;;;419.20;55.30;;;4.60;94.00;;;;;;6120826;23;99178;-69
2022/03/25 03:18:29;;;;;;;467.52;64.60;;;4.50;94.10;;;;;;6121893;22;98949;-69
2022/03/25 03:20:58;;;;;;;507.30;67.22;;;4.50;94.10;;;;;;6121251;23;98459;-70
2022/03/25 03:23:25;;;;;;;432.65;62.85;;;4.50;94.10;;;;;;6120874;23;104206;-69
2022/03/25 03:25:52;;;;;;;411.55;65.75;;;4.50;94.20;;;;;;6120161;23;99002;-70
2022/03/25 03:28:18;;;;;;;371.10;57.30;;;4.50;94.00;;;;;;6119237;23;98438;-70
2022/03/25 03:30:46;;;;;;;475.85;65.20;;;4.50;94.10;;;;;;6121634;22;98434;-69
2022/03/25 03:33:13;;;;;;;396.95;60.17;;;4.40;94.20;;;;;;6120301;22;100110;-70
2022/03/25 03:35:40;;;;;;;420.13;60.95;;;4.40;93.80;;;;;;6121149;23;99508;-69
2022/03/25 03:38:07;;;;;;;467.10;69.40;;;4.40;93.80;;;;;;6121454;23;98377;-70
2022/03/25 03:40:34;;;;;;;524.25;67.32;;;4.40;93.80;;;;;;6120009;23;98565;-69
2022/03/25 03:43:03;;;;;;;550.67;68.95;;;4.40;93.80;;;;;;6094662;23;102146;-69
2022/03/25 03:45:32;;;;;;;563.80;76.68;;;4.40;93.80;;;;;;6120554;22;109090;-69
2022/03/25 03:47:59;;;;;;;439.50;64.63;;;4.40;93.80;;;;;;6094657;23;98452;-69
2022/03/25 03:50:25;;;;;;;301.33;54.22;;;4.40;93.80;;;;;;6095549;23;97839;-69
2022/03/25 03:52:52;;;;;;;331.27;58.78;;;4.40;93.90;;;;;;6120422;22;99098;-69
2022/03/25 03:55:19;;;;;;;369.80;52.80;;;4.30;93.80;;;;;;6094314;23;101579;-69
2022/03/25 03:57:46;;;;;;;232.98;47.58;;;4.40;93.80;;;;;;6121017;23;99606;-69
2022/03/25 04:00:14;;;;;;;254.98;45.13;;;4.20;93.70;;;;;;6119379;23;98547;-69
2022/03/25 04:02:42;;;;;;;318.88;49.65;;;4.20;93.50;;;;;;6118696;23;107296;-70
2022/03/25 04:05:10;;;;;;;283.85;53.63;;;4.10;93.50;;;;;;6120673;22;99158;-71
2022/03/25 04:07:45;;;;;;;354.50;55.03;;;4.10;93.50;;;;;;6121144;23;98467;-72
2022/03/25 04:10:14;;;;;;;448.98;63.83;;;4.10;93.40;;;;;;6119555;23;98458;-72
2022/03/25 04:12:41;;;;;;;335.33;60.30;;;4.00;93.70;;;;;;6119317;23;99831;-72
2022/03/25 04:15:11;;;;;;;362.42;63.10;;;4.00;93.50;;;;;;6119198;23;101641;-73
2022/03/25 04:17:43;;;;;;;322.88;59.45;;;4.00;93.60;;;;;;6095250;23;98878;-72
2022/03/25 04:20:13;;;;;;;314.17;56.78;;;4.00;93.70;;;;;;6119475;23;98463;-72
2022/03/25 04:22:44;;;;;;;366.05;62.78;;;4.00;93.60;;;;;;6119002;23;100073;-72
2022/03/25 04:25:13;;;;;;;348.88;66.72;;;4.00;93.60;;;;;;6119228;23;99808;-72
2022/03/25 04:27:52;;;;;;;364.98;63.30;;;3.90;93.40;;;;;;6120510;22;104476;-72
2022/03/25 04:30:37;;;;;;;363.75;59.83;;;4.00;93.50;;;;;;6121042;22;98463;-73
2022/03/25 04:33:04;;;;;;;407.52;64.53;;;3.90;93.40;;;;;;6118676;23;100494;-72
2022/03/25 04:35:32;;;;;;;261.73;45.80;;;3.90;93.40;;;;;;6119038;23;101742;-72
2022/03/25 04:38:00;;;;;;;328.20;52.47;;;3.80;93.40;;;;;;6121296;22;98509;-72
2022/03/25 04:40:29;;;;;;;209.95;51.17;;;3.80;93.20;;;;;;6121461;22;97850;-72
2022/03/25 04:42:58;;;;;;;295.80;52.72;;;3.70;93.10;;;;;;6120759;22;99310;-73
2022/03/25 04:45:26;;;;;;;326.58;61.25;;;3.70;93.20;;;;;;6120021;22;109536;-72
2022/03/25 04:47:54;;;;;;;362.30;71.88;;;3.70;93.50;;;;;;6118832;23;99275;-72
2022/03/25 04:50:21;;;;;;;327.73;66.45;;;3.70;93.20;;;;;;6121065;22;99017;-72
2022/03/25 04:52:48;;;;;;;221.18;53.53;;;3.70;93.20;;;;;;6118561;23;104471;-72
2022/03/25 04:55:17;;;;;;;365.17;69.28;;;3.70;93.20;;;;;;6120457;23;99100;-72
2022/03/25 04:57:45;;;;;;;324.20;69.07;;;3.70;93.20;;;;;;6094747;23;98520;-72
2022/03/25 05:00:13;;;;;;;256.02;56.33;;;3.70;93.20;;;;;;6121079;23;98466;-72
2022/03/25 05:02:41;;;;;;;192.40;52.28;;;3.70;93.20;;;;;;6120191;22;112076;-73
2022/03/25 05:05:08;;;;;;;176.50;47.00;;;3.70;93.10;;;;;;6121339;22;98877;-73
2022/03/25 05:07:35;;;;;;;131.40;44.85;;;3.70;93.00;;;;;;6119432;23;98737;-73
2022/03/25 05:10:03;;;;;;;101.88;38.75;;;3.70;93.00;;;;;;6121052;22;98549;-72
2022/03/25 05:12:30;;;;;;;106.85;41.70;;;3.60;92.90;;;;;;6120057;22;100007;-72
2022/03/25 05:14:57;;;;;;;99.43;38.25;;;3.60;92.90;;;;;;6118795;23;102518;-72
2022/03/25 05:17:25;;;;;;;111.63;41.53;;;3.60;92.80;;;;;;6119380;23;99331;-72
2022/03/25 05:19:54;;;;;;;184.90;44.67;;;3.60;92.90;;;;;;6119318;23;98550;-72
2022/03/25 05:22:22;;;;;;;96.72;38.78;;;3.50;92.90;;;;;;6119686;23;113482;-72
2022/03/25 05:24:49;;;;;;;98.57;39.45;;;3.50;92.90;;;;;;6119158;23;98907;-72
2022/03/25 05:27:16;;;;;;;132.57;41.00;;;3.50;92.90;;;;;;6094299;23;98489;-72
2022/03/25 05:29:44;;;;;;;243.45;48.40;;;3.50;92.90;;;;;;6095474;23;97743;-72
2022/03/25 05:32:11;;;;;;;183.48;52.40;;;3.50;92.80;;;;;;6118515;23;101791;-72
2022/03/25 05:34:38;;;;;;;317.98;62.45;;;3.50;92.90;;;;;;6118874;23;99160;-72
2022/03/25 05:37:05;;;;;;;278.15;65.03;;;3.50;92.90;;;;;;6118963;23;99283;-72
2022/03/25 05:39:32;;;;;;;280.92;67.13;;;3.60;92.90;;;;;;6120771;22;99555;-72
2022/03/25 05:41:59;;;;;;;274.02;64.70;;;3.60;93.20;;;;;;6118952;23;99361;-72
2022/03/25 05:44:26;;;;;;;367.25;77.93;;;3.60;92.90;;;;;;6120061;23;98792;-72
2022/03/25 05:46:53;;;;;;;233.40;69.82;;;3.60;92.80;;;;;;6118870;23;99531;-72
2022/03/25 05:49:20;;;;;;;353.55;77.53;;;3.70;93.10;;;;;;6120472;23;98546;-72
2022/03/25 05:51:47;;;;;;;273.77;72.35;;;3.70;93.10;;;;;;6118855;23;99222;-72
2022/03/25 05:54:14;;;;;;;212.63;69.30;;;3.80;92.90;;;;;;6118532;23;101956;-72
2022/03/25 05:56:41;;;;;;;227.30;75.57;;;3.80;92.80;;;;;;6070068;23;98588;-72
2022/03/25 05:59:08;;;;;;;174.75;61.88;;;3.90;92.70;;;;;;6120735;22;98485;-71
2022/03/25 06:01:36;;;;;;;290.27;69.55;;;3.90;92.60;;;;;;6119485;22;99891;-71
2022/03/25 06:04:03;;;;;;;163.20;63.70;;;3.90;92.60;;;;;;6118275;23;102432;-71
2022/03/25 06:06:30;;;;;;;111.88;48.33;;;4.00;92.70;;;;;;6118377;23;99057;-71
2022/03/25 06:08:57;;;;;;;77.57;42.53;;;4.10;92.70;;;;;;6094245;23;98676;-71
2022/03/25 06:11:24;;;;;;;67.82;37.60;;;4.30;92.70;;;;;;6119870;22;99259;-71
2022/03/25 06:13:52;;;;;;;52.95;33.63;;;4.50;92.70;;;;;;6093926;23;101373;-71
2022/03/25 06:16:19;;;;;;;49.20;32.53;;;4.70;92.60;;;;;;6120490;22;98824;-71
2022/03/25 06:18:47;;;;;;;44.78;30.75;;;4.80;92.30;;;;;;6121001;22;97796;-71
2022/03/25 06:21:14;;;;;;;42.67;30.23;;;5.00;92.20;;;;;;6118486;23;99313;-71
2022/03/25 06:23:41;;;;;;;39.50;28.88;;;5.30;91.90;;;;;;6119851;22;99617;-71
2022/03/25 06:26:08;;;;;;;39.55;28.98;;;5.50;91.40;;;;;;6093703;23;99204;-71
2022/03/25 06:28:35;;;;;;;39.65;30.65;;;5.70;91.10;;;;;;6118660;23;98512;-71
2022/03/25 06:31:03;;;;;;;37.08;28.45;;;5.90;90.70;;;;;;6118065;23;102213;-71
2022/03/25 06:33:30;;;;;;;37.65;28.75;;;6.20;90.40;;;;;;6119713;22;99116;-71
2022/03/25 06:35:57;;;;;;;36.20;26.88;;;6.50;89.80;;;;;;6094015;23;98481;-71
2022/03/25 06:38:24;;;;;;;42.95;30.23;;;6.70;88.80;;;;;;6120117;22;98444;-71
2022/03/25 06:40:52;;;;;;;41.40;29.83;;;6.90;87.80;;;;;;6119864;22;99277;-71
2022/03/25 06:43:20;;;;;;;32.35;26.83;;;7.10;88.30;;;;;;6118876;23;109774;-71
2022/03/25 06:45:47;;;;;;;35.28;27.13;;;7.30;87.20;;;;;;6121709;22;98442;-71
2022/03/25 06:48:14;;;;;;;36.45;29.33;;;7.60;86.50;;;;;;6121606;23;98566;-71
2022/03/25 06:50:41;;;;;;;39.67;29.52;;;7.80;85.90;;;;;;6118719;23;102997;-71
2022/03/25 06:53:09;;;;;;;35.97;30.27;;;8.10;85.00;;;;;;6120740;23;99687;-71
2022/03/25 06:55:36;;;;;;;42.67;29.40;;;8.20;84.70;;;;;;6119493;23;98591;-71
2022/03/25 06:58:03;;;;;;;44.85;32.72;;;8.30;84.00;;;;;;6095519;23;98452;-72
2022/03/25 07:00:31;;;;;;;40.72;31.30;;;8.40;83.60;;;;;;6119449;23;98962;-72
2022/03/25 07:02:59;;;;;;;54.63;31.95;;;8.40;83.40;;;;;;6121147;22;99717;-72
2022/03/25 07:05:26;;;;;;;45.60;33.28;;;8.50;83.60;;;;;;6095009;23;98500;-72
2022/03/25 07:07:53;;;;;;;43.60;32.20;;;8.60;83.50;;;;;;6120306;23;97879;-71
2022/03/25 07:10:23;;;;;;;54.25;35.17;;;8.70;83.60;;;;;;6120818;22;104041;-71
2022/03/25 07:12:51;;;;;;;50.47;35.95;;;8.80;83.60;;;;;;6121151;22;99218;-70
2022/03/25 07:15:20;;;;;;;51.53;33.95;;;8.90;83.20;;;;;;6119507;23;99160;-72
2022/03/25 07:17:47;;;;;;;44.15;33.22;;;9.10;83.00;;;;;;6121209;23;98557;-72
2022/03/25 07:20:16;;;;;;;46.33;34.38;;;9.30;82.40;;;;;;6119254;23;104754;-72
2022/03/25 07:22:45;;;;;;;40.90;31.10;;;9.40;81.90;;;;;;6120833;23;99165;-72
2022/03/25 07:25:13;;;;;;;39.92;30.67;;;9.60;81.20;;;;;;6119484;23;98515;-72
2022/03/25 07:27:41;;;;;;;37.53;31.67;;;9.80;81.20;;;;;;6120968;22;98488;-72
2022/03/25 07:30:09;;;;;;;36.03;28.95;;;10.10;80.20;;;;;;6119088;23;102039;-72
2022/03/25 07:32:36;;;;;;;37.35;30.02;;;10.40;79.30;;;;;;6094802;23;102008;-72
2022/03/25 07:35:04;;;;;;;37.38;30.65;;;10.60;78.80;;;;;;6121523;22;98833;-72
2022/03/25 07:37:31;;;;;;;34.35;29.35;;;10.80;77.80;;;;;;6094806;23;98567;-72
2022/03/25 07:39:57;;;;;;;34.85;29.77;;;11.00;77.10;;;;;;6120583;22;99874;-72
2022/03/25 07:42:25;;;;;;;35.45;31.58;;;11.30;77.10;;;;;;6094285;23;102739;-72
2022/03/25 07:44:51;;;;;;;38.70;33.95;;;11.60;76.20;;;;;;6121326;22;98978;-72
2022/03/25 07:47:18;;;;;;;39.33;33.38;;;11.80;76.20;;;;;;6119618;23;98526;-72
2022/03/25 07:49:46;;;;;;;40.47;33.20;;;12.10;74.60;;;;;;6094208;23;101748;-73
2022/03/25 07:52:13;;;;;;;36.90;31.50;;;12.30;73.50;;;;;;6118831;23;109436;-73
2022/03/25 07:54:41;;;;;;;37.35;32.92;;;12.50;72.80;;;;;;6118829;23;98502;-73
2022/03/25 07:57:08;;;;;;;38.03;34.05;;;12.70;72.00;;;;;;6120212;23;97759;-73
2022/03/25 07:59:35;;;;;;;37.70;33.70;;;12.90;71.10;;;;;;6094236;23;101773;-73
2022/03/25 08:02:03;;;;;;;39.88;35.50;;;13.00;71.40;;;;;;6121095;22;99141;-73
2022/03/25 08:04:30;;;;;;;40.97;36.75;;;13.40;70.90;;;;;;6119449;23;99205;-73
2022/03/25 08:06:57;;;;;;;38.17;34.22;;;13.50;69.30;;;;;;6121282;23;98491;-73
2022/03/25 08:09:24;;;;;;;42.47;38.13;;;13.60;68.60;;;;;;6119223;23;102078;-73
2022/03/25 08:11:51;;;;;;;38.83;34.88;;;13.80;69.20;;;;;;6120659;22;99024;-72
2022/03/25 08:14:22;;;;;;;40.75;36.47;;;14.20;68.80;;;;;;6119889;23;98515;-73
2022/03/25 08:16:49;;;;;;;38.97;34.72;;;14.60;67.90;;;;;;6120972;22;98445;-73
2022/03/25 08:19:16;;;;;;;41.80;35.00;;;14.90;66.90;;;;;;6120817;23;99251;-73
2022/03/25 08:21:43;;;;;;;39.53;35.38;;;15.30;65.90;;;;;;6121345;22;98975;-73
2022/03/25 08:29:41;;;;;;;36.92;33.17;;;15.70;61.40;;;;;;6118378;23;102456;-73
2022/03/25 08:32:08;;;;;;;36.60;32.70;;;15.90;61.60;;;;;;6120612;22;99746;-73
2022/03/25 08:34:35;;;;;;;39.10;35.05;;;16.00;60.80;;;;;;6119342;23;98537;-73
2022/03/25 08:37:02;;;;;;;35.20;30.83;;;16.10;61.00;;;;;;6094849;23;98503;-73
2022/03/25 08:39:29;;;;;;;33.03;28.33;;;16.20;60.50;;;;;;6118462;23;117430;-73
2022/03/25 08:41:56;;;;;;;35.03;28.80;;;16.30;59.80;;;;;;6118958;23;98773;-73
2022/03/25 08:44:33;;;;;;;35.85;29.05;;;16.10;58.30;;;;;;6119707;23;98920;-73
2022/03/25 08:47:03;;;;;;;38.20;29.95;;;15.90;58.40;;;;;;6096247;23;97711;-73
2022/03/25 08:49:32;;;;;;;36.17;28.98;;;15.50;59.70;;;;;;6120530;23;99132;-73
2022/03/25 08:52:09;;;;;;;42.33;29.13;;;15.10;60.70;;;;;;6120418;23;98925;-73
2022/03/25 08:54:51;;;;;;;38.10;27.77;;;14.70;61.10;;;;;;6099083;23;99255;-73
2022/03/25 08:57:18;;;;;;;38.60;28.95;;;14.40;62.00;;;;;;6070662;23;98636;-73
2022/03/25 08:59:47;;;;;;;35.63;28.13;;;14.20;63.40;;;;;;6120432;22;99235;-73
2022/03/25 09:02:14;;;;;;;38.17;28.52;;;14.10;63.30;;;;;;6119303;23;99096;-73
2022/03/25 09:04:41;;;;;;;40.75;27.20;;;14.10;63.30;;;;;;6119165;23;98426;-73
2022/03/25 09:07:09;;;;;;;39.45;27.42;;;14.10;63.50;;;;;;6094076;23;98499;-73
2022/03/25 09:09:37;;;;;;;38.08;27.30;;;14.00;63.40;;;;;;6120500;23;99247;-73
2022/03/25 09:12:04;;;;;;;37.10;26.70;;;14.00;63.00;;;;;;6119404;23;99089;-73
2022/03/25 09:14:32;;;;;;;37.50;27.55;;;13.90;63.70;;;;;;6119156;23;98547;-73
2022/03/25 09:17:00;;;;;;;42.03;31.05;;;13.80;63.90;;;;;;6120795;23;98536;-73
2022/03/25 09:19:27;;;;;;;43.33;29.13;;;13.70;64.00;;;;;;6118642;23;99851;-72
2022/03/25 09:21:54;;;;;;;39.60;26.00;;;13.70;64.00;;;;;;6120283;22;99676;-73
2022/03/25 09:24:21;;;;;;;36.00;26.17;;;13.70;64.10;;;;;;6119420;23;98478;-74
2022/03/25 09:26:48;;;;;;;37.22;25.73;;;13.70;64.30;;;;;;6118452;23;104772;-74
2022/03/25 09:29:15;;;;;;;35.03;24.85;;;13.80;62.80;;;;;;6118909;23;99372;-74
2022/03/25 09:31:44;;;;;;;35.78;24.45;;;13.80;62.40;;;;;;6120479;23;99432;-74
2022/03/25 09:37:02;;;;;;;35.35;24.48;;;13.70;62.40;;;;;;6119812;23;98203;-74
2022/03/25 09:39:29;;;;;;;35.08;23.88;;;13.80;62.60;;;;;;6118635;23;101665;-74
2022/03/25 09:41:58;;;;;;;33.72;22.70;;;13.90;62.30;;;;;;6093645;23;101514;-74
2022/03/25 09:44:25;;;;;;;35.65;23.85;;;14.00;61.80;;;;;;6120365;22;99179;-74
2022/03/25 09:46:52;;;;;;;32.97;21.88;;;14.00;61.80;;;;;;6118809;23;98501;-74
2022/03/25 09:49:20;;;;;;;34.80;25.15;;;14.00;61.30;;;;;;6118413;23;101825;-74
2022/03/25 09:51:47;;;;;;;38.67;23.25;;;14.00;61.80;;;;;;6118646;23;99147;-74
2022/03/25 09:54:16;;;;;;;31.00;21.75;;;14.00;61.30;;;;;;6120319;23;98514;-74
2022/03/25 09:56:43;;;;;;;36.92;23.95;;;14.10;61.40;;;;;;6119401;23;98470;-74
2022/03/25 09:59:16;;;;;;;31.90;22.63;;;14.10;61.50;;;;;;6118245;23;101672;-74
2022/03/25 10:01:43;;;;;;;33.67;23.30;;;14.30;61.50;;;;;;6119168;23;101760;-74
2022/03/25 10:04:40;;;;;;;32.53;23.27;;;14.40;61.30;;;;;;6094095;23;98871;-74
2022/03/25 10:07:22;;;;;;;31.98;22.15;;;14.50;60.10;;;;;;6120460;22;98486;-74
2022/03/25 10:10:09;;;;;;;31.00;22.48;;;14.60;60.00;;;;;;6092594;23;102433;-74
2022/03/25 10:12:38;;;;;;;36.42;24.13;;;14.60;60.10;;;;;;6118541;23;102259;-74
2022/03/25 10:15:16;;;;;;;32.25;23.17;;;14.70;60.50;;;;;;6118339;23;98513;-72
2022/03/25 10:17:57;;;;;;;31.70;19.40;;;14.80;59.00;;;;;;6120910;22;98390;-71
2022/03/25 10:20:34;;;;;;;31.40;20.58;;;14.90;57.80;;;;;;6121378;23;99358;-71
2022/03/25 10:23:18;;;;;;;31.13;20.92;;;14.90;57.50;;;;;;6094789;23;104262;-71
2022/03/25 10:25:45;;;;;;;;;;;14.90;57.60;;;;;;6122285;22;98489;-71
2022/03/25 10:28:24;;;;;;;33.30;20.90;;;14.80;57.40;;;;;;6122720;23;98089;-71
2022/03/25 10:30:53;;;;;;;29.85;19.92;;;14.90;57.70;;;;;;6119393;23;99270;-71
2022/03/25 10:33:23;;;;;;;30.85;21.67;;;14.90;56.30;;;;;;6094838;23;101614;-71
2022/03/25 10:35:59;;;;;;;28.90;20.80;;;15.10;57.10;;;;;;6121593;22;99163;-71
2022/03/25 10:38:27;;;;;;;27.42;17.02;;;15.20;56.30;;;;;;6120333;23;98753;-71
2022/03/25 10:40:56;;;;;;;29.55;20.20;;;15.30;53.20;;;;;;6120518;23;110044;-71
2022/03/25 10:43:24;;;;;;;25.33;17.90;;;15.20;54.50;;;;;;6121243;22;99070;-71
2022/03/25 10:45:52;;;;;;;25.88;17.70;;;15.30;54.10;;;;;;6121608;23;98390;-71
2022/03/25 10:48:21;;;;;;;24.30;17.35;;;15.30;53.00;;;;;;6120214;23;98556;-71
2022/03/25 10:51:00;;;;;;;29.25;18.88;;;15.40;52.90;;;;;;6119145;23;101690;-71
2022/03/25 10:53:28;;;;;;;30.70;20.75;;;15.50;53.40;;;;;;6120717;23;99187;-71
2022/03/25 10:55:58;;;;;;;27.90;18.67;;;15.50;54.20;;;;;;6119960;23;98865;-71
2022/03/25 10:58:26;;;;;;;29.42;18.15;;;15.50;53.70;;;;;;6119704;23;98480;-71
2022/03/25 11:00:53;;;;;;;29.33;17.73;;;15.50;53.50;;;;;;6120710;23;99967;-71
2022/03/25 11:03:21;;;;;;;26.98;20.50;;;15.60;52.90;;;;;;6121163;22;99842;-71
2022/03/25 11:05:49;;;;;;;29.17;19.85;;;15.70;54.20;;;;;;6119824;23;98506;-74
2022/03/25 11:08:16;;;;;;;26.25;19.10;;;15.80;54.20;;;;;;6121418;22;98462;-74
2022/03/25 11:10:43;;;;;;;27.35;17.88;;;15.80;53.80;;;;;;6120944;22;101446;-75
2022/03/25 11:13:10;;;;;;;27.15;19.15;;;15.90;51.50;;;;;;6120868;23;98949;-73
2022/03/25 11:15:38;;;;;;;30.02;18.98;;;15.90;51.60;;;;;;6121006;22;98458;-72
2022/03/25 11:18:09;;;;;;;30.80;20.48;;;16.00;52.50;;;;;;6119846;23;97831;-72
2022/03/25 11:20:36;;;;;;;30.15;20.00;;;16.10;52.30;;;;;;6119355;23;101687;-72
2022/03/25 11:23:15;;;;;;;28.83;19.83;;;16.20;52.30;;;;;;6120796;22;99069;-72
2022/03/25 11:25:48;;;;;;;29.90;20.15;;;16.20;52.40;;;;;;6121088;22;99113;-72
2022/03/25 11:28:17;;;;;;;;;;;16.20;51.70;;;;;;6120276;23;98949;-72
2022/03/25 11:30:44;;;;;;;27.15;18.73;;;16.20;50.60;;;;;;6122675;22;99612;-72
2022/03/25 11:33:11;;;;;;;32.95;19.80;;;16.30;51.60;;;;;;6094729;23;98804;-72
2022/03/25 11:35:41;;;;;;;29.13;19.50;;;16.40;51.40;;;;;;6120233;23;98540;-72
2022/03/25 11:38:11;;;;;;;29.30;19.85;;;16.50;51.30;;;;;;6121243;23;98599;-72
2022/03/25 11:40:39;;;;;;;32.05;20.58;;;16.50;50.90;;;;;;6120862;22;101138;-72
2022/03/25 11:43:28;;;;;;;34.55;21.23;;;16.60;51.00;;;;;;6119276;23;101698;-72
2022/03/25 11:46:05;;;;;;;31.10;21.75;;;16.70;51.40;;;;;;6121525;22;98534;-72
2022/03/25 11:48:34;;;;;;;32.53;21.48;;;16.80;52.20;;;;;;6120009;23;98535;-72
2022/03/25 11:51:21;;;;;;;33.78;23.15;;;16.80;51.20;;;;;;6118593;23;99942;-72
2022/03/25 11:53:48;;;;;;;34.25;22.17;;;16.80;51.10;;;;;;6120384;22;102082;-72
2022/03/25 11:56:15;;;;;;;31.92;23.45;;;16.80;51.80;;;;;;6119429;23;98576;-72
2022/03/25 11:58:54;;;;;;;30.60;21.40;;;16.90;51.50;;;;;;6121353;22;98468;-72
2022/03/25 12:01:22;;;;;;;32.63;21.90;;;17.00;50.40;;;;;;6120866;23;99360;-72
2022/03/25 12:03:54;;;;;;;28.35;17.88;;;17.00;50.50;;;;;;6119387;23;99087;-72
2022/03/25 12:06:27;;;;;;;32.63;21.90;;;17.00;49.10;;;;;;6119527;23;98449;-72
2022/03/25 12:08:55;;;;;;;31.45;20.20;;;16.90;49.60;;;;;;6120322;23;97799;-72
2022/03/25 12:11:55;;;;;;;29.33;18.33;;;16.90;49.70;;;;;;6119937;22;111885;-74
2022/03/25 12:14:31;;;;;;;29.20;19.75;;;17.10;49.70;;;;;;6120797;22;99025;-73
2022/03/25 12:17:02;;;;;;;24.52;17.73;;;17.10;49.40;;;;;;6120923;22;99186;-72
2022/03/25 12:19:29;;;;;;;29.38;18.88;;;17.00;48.70;;;;;;6119822;23;98649;-73
2022/03/25 12:22:25;;;;;;;25.58;17.13;;;17.00;48.90;;;;;;6118719;23;109964;-72
2022/03/25 12:24:53;;;;;;;23.73;16.33;;;17.20;48.90;;;;;;6101297;23;99033;-73
2022/03/25 12:27:21;;;;;;;27.63;15.40;;;17.10;48.60;;;;;;6120974;22;98451;-73
2022/03/25 12:29:51;;;;;;;24.95;15.57;;;17.20;48.30;;;;;;6119487;23;98574;-72
2022/03/25 12:32:20;;;;;;;29.40;16.77;;;17.30;49.00;;;;;;6118880;23;100561;-73
2022/03/25 12:35:05;;;;;;;19.95;12.27;;;17.40;47.80;;;;;;6121200;22;98916;-73
2022/03/25 12:37:38;;;;;;;20.98;14.02;;;17.50;44.60;;;;;;6119820;23;98609;-73
2022/03/25 12:40:32;;;;;;;19.50;12.80;;;17.50;45.20;;;;;;6119249;23;98433;-73
2022/03/25 12:43:05;;;;;;;17.52;10.77;;;17.50;43.20;;;;;;6114896;23;99872;-73